Time,TemperatureF,DewpointF,PressureIn,WindDirection,WindDirectionDegrees,WindSpeedMPH,WindSpeedGustMPH,Humidity,HourlyPrecipIn,Conditions,Clouds,dailyrainin,SoftwareType,DateUTC
2013-02-20 00:04:00,19.6,10.4,30.40,NW,318,1.0,4.0,67,0.00,,---,0.00,VWS V12.07,2013-02-20 06:04:00,
2013-02-20 02:13:00,17.9,9.5,30.42,WNW,301,1.0,7.0,69,0.00,,---,0.00,VWS V12.07,2013-02-20 08:13:00,
2013-02-20 09:53:00,15.9,7.2,30.50,NNW,340,0.0,4.0,68,0.00,,---,0.00,VWS V12.07,2013-02-20 15:53:00,
2013-02-20 15:34:00,21.8,11.5,30.41,NE,46,3.0,5.0,64,0.00,,---,0.00,VWS V12.07,2013-02-20 21:34:00,
2013-02-20 15:54:00,22.0,12.1,30.41,ENE,58,0.0,9.0,65,0.00,,---,0.00,VWS V12.07,2013-02-20 21:54:00,
2013-02-20 16:14:00,21.9,12.0,30.42,ESE,115,3.0,7.0,65,0.00,,---,0.00,VWS V12.07,2013-02-20 22:14:00,
2013-02-20 16:54:00,22.0,13.1,30.40,ENE,59,2.0,7.0,68,0.00,,---,0.00,VWS V12.07,2013-02-20 22:54:00,
2013-02-20 17:14:00,22.0,12.4,30.40,NE,47,3.0,7.0,66,0.00,,---,0.00,VWS V12.07,2013-02-20 23:14:00,
2013-02-20 17:44:00,22.0,12.7,30.38,ESE,102,2.0,6.0,67,0.00,,---,0.00,VWS V12.07,2013-02-20 23:44:00,
2013-02-20 18:05:00,21.8,13.2,30.38,NE,41,3.0,8.0,69,0.00,,---,0.00,VWS V12.07,2013-02-21 00:05:00,
2013-02-20 18:14:00,21.7,12.8,30.37,NE,51,4.0,8.0,68,0.00,,---,0.00,VWS V12.07,2013-02-21 00:14:00,
2013-02-20 18:35:00,21.3,12.4,30.38,ENE,78,0.0,5.0,68,0.00,,---,0.00,VWS V12.07,2013-02-21 00:35:00,
2013-02-20 18:45:00,21.2,12.6,30.37,East,83,1.0,7.0,69,0.00,,---,0.00,VWS V12.07,2013-02-21 00:45:00,
2013-02-20 18:59:00,21.1,12.5,30.38,NE,54,0.0,7.0,69,0.00,,---,0.00,VWS V12.07,2013-02-21 00:59:00,
2013-02-20 19:05:00,21.1,12.9,30.38,NE,39,2.0,6.0,70,0.00,,---,0.00,VWS V12.07,2013-02-21 01:05:00,
2013-02-20 19:15:00,21.1,12.9,30.39,East,84,0.0,6.0,70,0.00,,---,0.00,VWS V12.07,2013-02-21 01:15:00,
2013-02-20 19:35:00,20.9,13.0,30.38,ESE,114,0.0,1.0,71,0.00,,---,0.00,VWS V12.07,2013-02-21 01:35:00,
2013-02-20 19:55:00,20.4,13.1,30.38,ENE,68,0.0,3.0,73,0.00,,---,0.00,VWS V12.07,2013-02-21 01:55:00,
2013-02-20 20:05:00,20.3,13.4,30.38,ENE,70,0.0,2.0,74,0.00,,---,0.00,VWS V12.07,2013-02-21 02:05:00,
2013-02-20 20:15:00,20.3,13.4,30.38,NE,55,0.0,3.0,74,0.00,,---,0.00,VWS V12.07,2013-02-21 02:15:00,
2013-02-20 20:45:00,20.8,13.8,30.40,East,79,0.0,1.0,74,0.00,,---,0.00,VWS V12.07,2013-02-21 02:45:00,
2013-02-20 20:55:00,20.6,13.6,30.41,NE,37,0.0,1.0,74,0.00,,---,0.00,VWS V12.07,2013-02-21 02:55:00,
2013-02-20 21:05:00,20.3,13.7,30.42,NE,37,0.0,0.0,75,0.00,,---,0.00,VWS V12.07,2013-02-21 03:05:00,
2013-02-20 21:15:00,20.2,13.6,30.41,NE,37,0.0,0.0,75,0.00,,---,0.00,VWS V12.07,2013-02-21 03:15:00,
2013-02-20 21:25:00,19.8,13.8,30.41,ESE,114,0.0,2.0,77,0.00,,---,0.00,VWS V12.07,2013-02-21 03:25:00,
2013-02-20 21:35:00,20.2,14.4,30.40,NE,55,0.0,2.0,78,0.00,,---,0.00,VWS V12.07,2013-02-21 03:35:00,
2013-02-20 21:55:00,21.2,14.8,30.40,ESE,103,2.0,4.0,76,0.00,,---,0.00,VWS V12.07,2013-02-21 03:55:00,
2013-02-20 22:05:00,21.4,14.4,30.40,ENE,72,2.0,3.0,74,0.00,,---,0.00,VWS V12.07,2013-02-21 04:05:00,
2013-02-20 22:15:00,21.6,14.6,30.40,ENE,78,2.0,3.0,74,0.00,,---,0.00,VWS V12.07,2013-02-21 04:15:00,
2013-02-20 22:35:00,21.7,14.7,30.39,East,94,0.0,4.0,74,0.00,,---,0.00,VWS V12.07,2013-02-21 04:35:00,
2013-02-20 22:44:00,21.7,15.0,30.40,ESE,104,2.0,4.0,75,0.00,,---,0.00,VWS V12.07,2013-02-21 04:44:00,
2013-02-20 23:04:00,21.6,14.9,30.41,ENE,72,3.0,3.0,75,0.00,,---,0.00,VWS V12.07,2013-02-21 05:04:00,
2013-02-20 23:25:00,20.9,14.8,30.41,East,96,0.0,4.0,77,0.00,,---,0.00,VWS V12.07,2013-02-21 05:25:00,
2013-02-20 23:34:00,20.7,14.6,30.41,East,79,0.0,3.0,77,0.00,,---,0.00,VWS V12.07,2013-02-21 05:34:00,